Observations for PIACENZA IT-AFB, Italy (LIMS)

LIMS 181455Z 11013KT 080V150 CAVOK 19/04 Q1022  
LIMS 181455Z 11013KT 080V150 CAVOK 19/04 Q1022 RMK SCT SCT220 VIS MIN 9999 WINDTHR30 10012KT BLU
LIMS 181355Z 11013KT 080V170 CAVOK 19/05 Q1023  
LIMS 181355Z 11013KT 080V170 CAVOK 19/05 Q1023 RMK SCT SCT220 VIS MIN 9999 WINDTHR30 09011KT BLU
LIMS 181255Z 11013KT 080V150 CAVOK 19/05 Q1023  
LIMS 181255Z 11013KT 080V150 CAVOK 19/05 Q1023 RMK FEW FEW240 VIS MIN 9999 WINDTHR30 09012KT BLU
LIMS 181155Z 11013KT 060V150 CAVOK 18/06 Q1023  
LIMS 181155Z 11013KT 060V150 CAVOK 18/06 Q1023 RMK FEW FEW240 VIS MIN 9999 WINDTHR30 09013KT BLU
LIMS 181055Z 10013KT 060V140 CAVOK 18/08 Q1023  
LIMS 181055Z 10013KT 060V140 CAVOK 18/08 Q1023 RMK FEW FEW240 VIS MIN 9999 WINDTHR30 09012KT BLU
LIMS 180955Z 11011KT 080V150 CAVOK 17/07 Q1024  
LIMS 180955Z 11011KT 080V150 CAVOK 17/07 Q1024 RMK SCT SCT240 VIS MIN 9999 WINDTHR30 09011KT BLU
LIMS 180855Z 11009KT 060V170 CAVOK 15/08 Q1023  
LIMS 180855Z 11009KT 060V170 CAVOK 15/08 Q1023 RMK FEW FEW240 VIS MIN 9999 WINDTHR30 10009KT BLU
LIMS 180755Z 11005KT 080V150 CAVOK 12/10 Q1023  
LIMS 180755Z 11005KT 080V150 CAVOK 12/10 Q1023 RMK FEW FEW240 VIS MIN 9999 WINDTHR30 11006KT BLU
LIMS 180655Z 03002KT CAVOK 11/08 Q1023  
LIMS 180655Z 03002KT CAVOK 11/08 Q1023 RMK FEW FEW240 VIS MIN 9999 WIND THR30 36003KT BLU
LIMS 180555Z 25004KT CAVOK 07/07 Q1022  
LIMS 180555Z 25004KT CAVOK 07/07 Q1022 RMK FEW FEW240 VIS MIN 9999 WIND THR30 24001KT BLU
LIMS 171755Z 14004KT CAVOK 17/08 Q1018  
LIMS 171755Z 14004KT CAVOK 17/08 Q1018 RMK SKC VIS MIN 9999 WIND THR30 12004KT BLU
LIMS 171655Z 12006KT CAVOK 19/03 Q1018  
LIMS 171655Z 12006KT CAVOK 19/03 Q1018 RMK FEW FEW180 VIS MIN 9999 WIND THR30 12004KT BLU
LIMS 171555Z 09002KT CAVOK 20/02 Q1018  
LIMS 171555Z 09002KT CAVOK 20/02 Q1018 RMK FEW FEW180 VIS MIN 9999 WIND THR30 06003KT BLU
LIMS 171455Z 11004KT CAVOK 20/01 Q1018  
LIMS 171455Z 11004KT CAVOK 20/01 Q1018 RMK FEW FEW180 VIS MIN 9999 WIND THR30 04002KT BLU